sensor_id;sensor_type;location;lat;lon;timestamp;pressure;altitude;pressure_sealevel;temperature;humidity
30744;BME280;17486;46.738;7.622;2023-04-05T00:01:12;95457.44;;;5.09;43.02
30744;BME280;17486;46.738;7.622;2023-04-05T00:03:38;95440.47;;;5.01;43.04
30744;BME280;17486;46.738;7.622;2023-04-05T00:06:05;95448.03;;;5.07;42.83
30744;BME280;17486;46.738;7.622;2023-04-05T00:08:31;95448.03;;;5.08;42.83
30744;BME280;17486;46.738;7.622;2023-04-05T00:10:57;95451.47;;;5.07;42.66
30744;BME280;17486;46.738;7.622;2023-04-05T00:13:22;95443.00;;;5.02;42.61
30744;BME280;17486;46.738;7.622;2023-04-05T00:15:48;95443.81;;;5.04;42.87
30744;BME280;17486;46.738;7.622;2023-04-05T00:18:14;95443.84;;;5.03;43.25
30744;BME280;17486;46.738;7.622;2023-04-05T00:20:52;95413.34;;;4.86;43.19
30744;BME280;17486;46.738;7.622;2023-04-05T00:23:18;95439.47;;;5.06;42.76
30744;BME280;17486;46.738;7.622;2023-04-05T00:25:44;95434.41;;;5.03;43.05
30744;BME280;17486;46.738;7.622;2023-04-05T00:28:10;95435.31;;;5.01;43.13
30744;BME280;17486;46.738;7.622;2023-04-05T00:30:36;95438.00;;;4.96;43.04
30744;BME280;17486;46.738;7.622;2023-04-05T00:33:01;95441.41;;;4.98;42.65
30744;BME280;17486;46.738;7.622;2023-04-05T00:35:27;95429.53;;;4.91;43.00
30744;BME280;17486;46.738;7.622;2023-04-05T00:37:54;95432.97;;;4.90;42.63
30744;BME280;17486;46.738;7.622;2023-04-05T00:40:19;95451.94;;;4.89;43.08
30744;BME280;17486;46.738;7.622;2023-04-05T00:42:45;95414.66;;;4.66;43.05
30744;BME280;17486;46.738;7.622;2023-04-05T00:45:12;95430.06;;;4.69;43.18
30744;BME280;17486;46.738;7.622;2023-04-05T00:47:37;95441.91;;;4.76;43.13
30744;BME280;17486;46.738;7.622;2023-04-05T00:50:04;95423.34;;;4.62;43.09
30744;BME280;17486;46.738;7.622;2023-04-05T00:52:30;95437.75;;;4.71;43.25
30744;BME280;17486;46.738;7.622;2023-04-05T00:54:56;95444.63;;;4.70;43.42
30744;BME280;17486;46.738;7.622;2023-04-05T00:57:22;95442.13;;;4.67;43.14
30744;BME280;17486;46.738;7.622;2023-04-05T00:59:49;95428.50;;;4.62;43.51
30744;BME280;17486;46.738;7.622;2023-04-05T01:05:33;95431.22;;;4.56;43.50
30744;BME280;17486;46.738;7.622;2023-04-05T01:08:19;95431.13;;;4.60;43.16
30744;BME280;17486;46.738;7.622;2023-04-05T01:10:50;95428.56;;;4.59;43.38
30744;BME280;17486;46.738;7.622;2023-04-05T01:13:19;95430.41;;;4.54;43.34
30744;BME280;17486;46.738;7.622;2023-04-05T01:15:44;95415.91;;;4.50;43.72
30744;BME280;17486;46.738;7.622;2023-04-05T01:18:11;95423.66;;;4.50;43.40
30744;BME280;17486;46.738;7.622;2023-04-05T01:20:42;95409.16;;;4.44;43.90
30744;BME280;17486;46.738;7.622;2023-04-05T01:26:00;95412.56;;;4.46;43.72
30744;BME280;17486;46.738;7.622;2023-04-05T01:33:53;95399.78;;;4.41;44.03
30744;BME280;17486;46.738;7.622;2023-04-05T01:36:32;95405.84;;;4.39;43.93
30744;BME280;17486;46.738;7.622;2023-04-05T01:38:59;95403.31;;;4.37;44.05
30744;BME280;17486;46.738;7.622;2023-04-05T01:41:26;95392.22;;;4.35;43.95
30744;BME280;17486;46.738;7.622;2023-04-05T01:43:52;95401.59;;;4.36;44.19
30744;BME280;17486;46.738;7.622;2023-04-05T01:46:17;95385.53;;;4.26;44.28
30744;BME280;17486;46.738;7.622;2023-04-05T01:48:43;95401.78;;;4.30;44.39
30744;BME280;17486;46.738;7.622;2023-04-05T01:51:08;95406.91;;;4.30;44.32
30744;BME280;17486;46.738;7.622;2023-04-05T01:53:33;95392.44;;;4.24;44.26
30744;BME280;17486;46.738;7.622;2023-04-05T01:56:00;95401.81;;;4.27;44.55
30744;BME280;17486;46.738;7.622;2023-04-05T01:58:26;95365.31;;;4.09;44.69
30744;BME280;17486;46.738;7.622;2023-04-05T02:00:54;95394.13;;;4.25;44.75
30744;BME280;17486;46.738;7.622;2023-04-05T02:03:21;95386.44;;;4.24;44.75
30744;BME280;17486;46.738;7.622;2023-04-05T02:05:46;95381.38;;;4.19;44.72
30744;BME280;17486;46.738;7.622;2023-04-05T02:08:12;95363.63;;;4.08;44.96
30744;BME280;17486;46.738;7.622;2023-04-05T02:10:38;95381.59;;;4.11;45.05
30744;BME280;17486;46.738;7.622;2023-04-05T02:13:04;95381.50;;;4.14;45.02
30744;BME280;17486;46.738;7.622;2023-04-05T02:15:30;95362.00;;;4.04;45.21
30744;BME280;17486;46.738;7.622;2023-04-05T02:17:56;95384.00;;;4.18;45.46
30744;BME280;17486;46.738;7.622;2023-04-05T02:20:27;95361.16;;;4.04;45.28
30744;BME280;17486;46.738;7.622;2023-04-05T02:22:52;95385.75;;;4.17;45.75
30744;BME280;17486;46.738;7.622;2023-04-05T02:25:18;95378.03;;;4.17;45.61
30744;BME280;17486;46.738;7.622;2023-04-05T02:27:44;95376.38;;;4.14;45.57
30744;BME280;17486;46.738;7.622;2023-04-05T02:30:09;95375.69;;;4.05;46.00
30744;BME280;17486;46.738;7.622;2023-04-05T02:32:37;95369.81;;;4.01;46.15
30744;BME280;17486;46.738;7.622;2023-04-05T02:35:03;95376.63;;;4.02;46.21
30744;BME280;17486;46.738;7.622;2023-04-05T02:37:28;95375.75;;;4.03;45.93
30744;BME280;17486;46.738;7.622;2023-04-05T02:39:54;95367.28;;;4.00;46.36
30744;BME280;17486;46.738;7.622;2023-04-05T02:42:19;95371.44;;;4.05;46.14
30744;BME280;17486;46.738;7.622;2023-04-05T02:44:45;95367.97;;;4.06;46.08
30744;BME280;17486;46.738;7.622;2023-04-05T02:47:10;95369.72;;;4.04;46.35
30744;BME280;17486;46.738;7.622;2023-04-05T02:49:36;95357.09;;;3.93;46.35
30744;BME280;17486;46.738;7.622;2023-04-05T02:52:01;95371.63;;;3.96;46.51
30744;BME280;17486;46.738;7.622;2023-04-05T02:54:26;95377.66;;;3.95;46.26
30744;BME280;17486;46.738;7.622;2023-04-05T02:56:52;95358.88;;;3.90;46.72
30744;BME280;17486;46.738;7.622;2023-04-05T02:59:19;95366.53;;;3.93;46.65
30744;BME280;17486;46.738;7.622;2023-04-05T03:01:45;95356.22;;;3.93;46.63
30744;BME280;17486;46.738;7.622;2023-04-05T03:04:10;95352.91;;;3.88;46.90
30744;BME280;17486;46.738;7.622;2023-04-05T03:06:37;95353.75;;;3.90;46.68
30744;BME280;17486;46.738;7.622;2023-04-05T03:09:03;95352.91;;;3.88;46.81
30744;BME280;17486;46.738;7.622;2023-04-05T03:11:29;95342.78;;;3.81;46.65
30744;BME280;17486;46.738;7.622;2023-04-05T03:13:55;95319.00;;;3.70;46.42
30744;BME280;17486;46.738;7.622;2023-04-05T03:16:20;95343.63;;;3.82;46.71
30744;BME280;17486;46.738;7.622;2023-04-05T03:18:47;95339.41;;;3.78;46.83
30744;BME280;17486;46.738;7.622;2023-04-05T03:21:13;95338.59;;;3.76;46.94
30744;BME280;17486;46.738;7.622;2023-04-05T03:23:42;95339.50;;;3.73;46.98
30744;BME280;17486;46.738;7.622;2023-04-05T03:26:07;95332.78;;;3.68;46.80
30744;BME280;17486;46.738;7.622;2023-04-05T03:28:32;95346.34;;;3.74;46.52
30744;BME280;17486;46.738;7.622;2023-04-05T03:30:58;95349.75;;;3.76;46.92
30744;BME280;17486;46.738;7.622;2023-04-05T03:33:23;95341.28;;;3.71;47.08
30744;BME280;17486;46.738;7.622;2023-04-05T03:35:49;95331.13;;;3.65;47.19
30744;BME280;17486;46.738;7.622;2023-04-05T03:38:15;95336.25;;;3.65;47.32
30744;BME280;17486;46.738;7.622;2023-04-05T03:40:40;95329.41;;;3.65;47.50
30744;BME280;17486;46.738;7.622;2023-04-05T03:43:05;95329.38;;;3.67;46.82
30744;BME280;17486;46.738;7.622;2023-04-05T03:45:31;95319.25;;;3.59;46.92
30744;BME280;17486;46.738;7.622;2023-04-05T03:47:58;95324.28;;;3.64;47.45
30744;BME280;17486;46.738;7.622;2023-04-05T03:50:24;95312.47;;;3.54;47.28
30744;BME280;17486;46.738;7.622;2023-04-05T03:52:51;95293.81;;;3.45;47.33
30744;BME280;17486;46.738;7.622;2023-04-05T03:55:16;95321.81;;;3.59;47.30
30744;BME280;17486;46.738;7.622;2023-04-05T03:57:42;95326.09;;;3.59;47.21
30744;BME280;17486;46.738;7.622;2023-04-05T04:00:08;95320.94;;;3.59;47.39
30744;BME280;17486;46.738;7.622;2023-04-05T04:02:40;95317.50;;;3.60;47.41
30744;BME280;17486;46.738;7.622;2023-04-05T04:05:06;95314.09;;;3.59;47.29
30744;BME280;17486;46.738;7.622;2023-04-05T04:07:31;95296.38;;;3.45;47.66
30744;BME280;17486;46.738;7.622;2023-04-05T04:09:57;95293.00;;;3.43;47.79
30744;BME280;17486;46.738;7.622;2023-04-05T04:12:22;95306.63;;;3.47;47.61
30744;BME280;17486;46.738;7.622;2023-04-05T04:14:47;95327.16;;;3.50;48.35
30744;BME280;17486;46.738;7.622;2023-04-05T04:17:34;95309.34;;;3.39;47.89
30744;BME280;17486;46.738;7.622;2023-04-05T04:20:01;95320.38;;;3.44;47.90
30744;BME280;17486;46.738;7.622;2023-04-05T04:22:31;95323.78;;;3.46;48.06
30744;BME280;17486;46.738;7.622;2023-04-05T04:25:00;95304.41;;;3.31;48.24
30744;BME280;17486;46.738;7.622;2023-04-05T04:27:30;95326.47;;;3.40;48.08
30744;BME280;17486;46.738;7.622;2023-04-05T04:29:55;95329.16;;;3.36;48.11
30744;BME280;17486;46.738;7.622;2023-04-05T04:32:27;95327.50;;;3.33;47.96
30744;BME280;17486;46.738;7.622;2023-04-05T04:35:12;95338.69;;;3.30;47.90
30744;BME280;17486;46.738;7.622;2023-04-05T04:37:45;95338.72;;;3.29;47.92
30744;BME280;17486;46.738;7.622;2023-04-05T04:40:14;95341.31;;;3.26;48.07
30744;BME280;17486;46.738;7.622;2023-04-05T04:42:43;95342.19;;;3.25;47.94
30744;BME280;17486;46.738;7.622;2023-04-05T04:45:13;95324.53;;;3.09;47.98
30744;BME280;17486;46.738;7.622;2023-04-05T04:47:41;95340.69;;;3.16;47.98
30744;BME280;17486;46.738;7.622;2023-04-05T04:50:07;95348.34;;;3.18;48.24
30744;BME280;17486;46.738;7.622;2023-04-05T04:52:34;95345.81;;;3.16;48.32
30744;BME280;17486;46.738;7.622;2023-04-05T04:54:59;95347.56;;;3.14;48.37
30744;BME280;17486;46.738;7.622;2023-04-05T04:57:27;95347.59;;;3.12;48.43
30744;BME280;17486;46.738;7.622;2023-04-05T04:59:52;95347.59;;;3.12;48.37
30744;BME280;17486;46.738;7.622;2023-04-05T05:02:22;95350.22;;;3.08;48.46
30744;BME280;17486;46.738;7.622;2023-04-05T05:04:47;95341.78;;;3.03;48.58
30744;BME280;17486;46.738;7.622;2023-04-05T05:07:13;95349.50;;;3.01;48.56
30744;BME280;17486;46.738;7.622;2023-04-05T05:09:38;95327.56;;;2.85;48.14
30744;BME280;17486;46.738;7.622;2023-04-05T05:12:04;95334.38;;;2.86;48.74
30744;BME280;17486;46.738;7.622;2023-04-05T05:14:29;95340.31;;;2.88;48.79
30744;BME280;17486;46.738;7.622;2023-04-05T05:16:54;95326.72;;;2.82;48.62
30744;BME280;17486;46.738;7.622;2023-04-05T05:19:23;95303.88;;;2.67;48.92
30744;BME280;17486;46.738;7.622;2023-04-05T05:21:48;95330.25;;;2.77;48.49
30744;BME280;17486;46.738;7.622;2023-04-05T05:24:14;95323.44;;;2.74;48.47
30744;BME280;17486;46.738;7.622;2023-04-05T05:26:40;95328.59;;;2.74;48.53
30744;BME280;17486;46.738;7.622;2023-04-05T05:29:05;95323.53;;;2.70;48.70
30744;BME280;17486;46.738;7.622;2023-04-05T05:31:31;95332.72;;;2.83;48.54
30744;BME280;17486;46.738;7.622;2023-04-05T05:33:58;95342.97;;;2.85;48.51
30744;BME280;17486;46.738;7.622;2023-04-05T05:36:23;95337.06;;;2.79;48.23
30744;BME280;17486;46.738;7.622;2023-04-05T05:38:52;95322.66;;;2.71;48.30
30744;BME280;17486;46.738;7.622;2023-04-05T05:41:18;95332.84;;;2.75;48.26
30744;BME280;17486;46.738;7.622;2023-04-05T05:43:43;95357.47;;;2.87;48.30
30744;BME280;17486;46.738;7.622;2023-04-05T05:46:09;95354.97;;;2.82;48.59
30744;BME280;17486;46.738;7.622;2023-04-05T05:48:35;95371.88;;;2.94;48.10
30744;BME280;17486;46.738;7.622;2023-04-05T05:51:01;95365.94;;;2.91;47.83
30744;BME280;17486;46.738;7.622;2023-04-05T05:53:26;95367.59;;;2.96;48.43
30744;BME280;17486;46.738;7.622;2023-04-05T05:55:52;95365.81;;;3.00;47.97
30744;BME280;17486;46.738;7.622;2023-04-05T05:58:17;95372.63;;;3.03;47.93
30744;BME280;17486;46.738;7.622;2023-04-05T06:00:43;95377.66;;;3.07;48.00
30744;BME280;17486;46.738;7.622;2023-04-05T06:03:09;95373.34;;;3.09;47.86
30744;BME280;17486;46.738;7.622;2023-04-05T06:05:35;95372.47;;;3.09;47.99
30744;BME280;17486;46.738;7.622;2023-04-05T06:08:00;95369.88;;;3.10;47.59
30744;BME280;17486;46.738;7.622;2023-04-05T06:10:28;95371.66;;;3.08;47.61
30744;BME280;17486;46.738;7.622;2023-04-05T06:12:53;95383.63;;;3.09;47.88
30744;BME280;17486;46.738;7.622;2023-04-05T06:15:19;95376.72;;;3.11;47.98
30744;BME280;17486;46.738;7.622;2023-04-05T06:17:45;95370.69;;;3.14;47.82
30744;BME280;17486;46.738;7.622;2023-04-05T06:20:11;95367.28;;;3.13;47.96
30744;BME280;17486;46.738;7.622;2023-04-05T06:22:38;95363.06;;;3.09;47.62
30744;BME280;17486;46.738;7.622;2023-04-05T06:25:05;95388.50;;;3.23;47.80
30744;BME280;17486;46.738;7.622;2023-04-05T06:27:31;95388.47;;;3.25;47.84
30744;BME280;17486;46.738;7.622;2023-04-05T06:29:58;95378.13;;;3.28;47.79
30744;BME280;17486;46.738;7.622;2023-04-05T06:32:24;95367.03;;;3.26;47.69
30744;BME280;17486;46.738;7.622;2023-04-05T06:34:49;95379.59;;;3.41;47.60
30744;BME280;17486;46.738;7.622;2023-04-05T06:37:15;95368.47;;;3.41;47.51
30744;BME280;17486;46.738;7.622;2023-04-05T06:39:40;95386.31;;;3.48;47.65
30744;BME280;17486;46.738;7.622;2023-04-05T06:42:05;95391.34;;;3.53;47.43
30744;BME280;17486;46.738;7.622;2023-04-05T06:44:31;95367.50;;;3.46;47.24
30744;BME280;17486;46.738;7.622;2023-04-05T06:46:56;95389.41;;;3.66;47.00
30744;BME280;17486;46.738;7.622;2023-04-05T06:49:21;95372.34;;;3.62;46.94
30744;BME280;17486;46.738;7.622;2023-04-05T06:51:48;95384.94;;;3.74;47.13
30744;BME280;17486;46.738;7.622;2023-04-05T06:54:13;95386.50;;;3.81;46.90
30744;BME280;17486;46.738;7.622;2023-04-05T06:56:39;95377.78;;;3.89;46.82
30744;BME280;17486;46.738;7.622;2023-04-05T06:59:04;95358.97;;;3.87;46.83
30744;BME280;17486;46.738;7.622;2023-04-05T07:01:30;95371.69;;;3.93;46.46
30744;BME280;17486;46.738;7.622;2023-04-05T07:03:55;95377.34;;;4.09;46.51
30744;BME280;17486;46.738;7.622;2023-04-05T07:06:21;95379.00;;;4.11;46.10
30744;BME280;17486;46.738;7.622;2023-04-05T07:08:48;95386.44;;;4.24;46.15
30744;BME280;17486;46.738;7.622;2023-04-05T07:11:13;95381.16;;;4.30;45.57
30744;BME280;17486;46.738;7.622;2023-04-05T07:13:39;95375.03;;;4.36;45.38
30744;BME280;17486;46.738;7.622;2023-04-05T07:16:05;95369.03;;;4.35;45.61
30744;BME280;17486;46.738;7.622;2023-04-05T07:18:31;95375.50;;;4.52;45.29
30744;BME280;17486;46.738;7.622;2023-04-05T07:20:58;95383.09;;;4.58;45.35
30744;BME280;17486;46.738;7.622;2023-04-05T07:23:28;95381.22;;;4.64;45.56
30744;BME280;17486;46.738;7.622;2023-04-05T07:25:54;95385.34;;;4.70;45.28
30744;BME280;17486;46.738;7.622;2023-04-05T07:28:19;95383.50;;;4.77;44.92
30744;BME280;17486;46.738;7.622;2023-04-05T07:30:45;95381.63;;;4.84;44.70
30744;BME280;17486;46.738;7.622;2023-04-05T07:33:10;95380.53;;;4.92;44.64
30744;BME280;17486;46.738;7.622;2023-04-05T07:35:36;95375.22;;;4.98;44.75
30744;BME280;17486;46.738;7.622;2023-04-05T07:38:02;95361.59;;;4.93;44.00
30744;BME280;17486;46.738;7.622;2023-04-05T07:40:27;95385.94;;;5.16;43.58
30744;BME280;17486;46.738;7.622;2023-04-05T07:42:53;95378.91;;;5.23;43.51
30744;BME280;17486;46.738;7.622;2023-04-05T07:45:18;95365.19;;;5.21;43.51
30744;BME280;17486;46.738;7.622;2023-04-05T07:47:44;95366.59;;;5.32;43.62
30744;BME280;17486;46.738;7.622;2023-04-05T07:50:10;95383.38;;;5.47;43.73
30744;BME280;17486;46.738;7.622;2023-04-05T07:52:39;95381.50;;;5.54;44.02
30744;BME280;17486;46.738;7.622;2023-04-05T07:55:05;95365.38;;;5.46;43.37
30744;BME280;17486;46.738;7.622;2023-04-05T07:57:31;95379.63;;;5.59;42.76
30744;BME280;17486;46.738;7.622;2023-04-05T07:59:56;95377.16;;;5.55;43.32
30744;BME280;17486;46.738;7.622;2023-04-05T08:02:22;95393.53;;;5.54;42.85
30744;BME280;17486;46.738;7.622;2023-04-05T08:04:47;95379.75;;;5.55;43.59
30744;BME280;17486;46.738;7.622;2023-04-05T08:07:13;95370.31;;;5.54;43.50
30744;BME280;17486;46.738;7.622;2023-04-05T08:09:38;95380.13;;;5.72;43.60
30744;BME280;17486;46.738;7.622;2023-04-05T08:12:03;95381.47;;;5.86;43.11
30744;BME280;17486;46.738;7.622;2023-04-05T08:14:29;95382.94;;;5.94;43.01
30744;BME280;17486;46.738;7.622;2023-04-05T08:16:54;95385.13;;;6.08;42.15
30744;BME280;17486;46.738;7.622;2023-04-05T08:19:20;95370.81;;;5.98;42.53
30744;BME280;17486;46.738;7.622;2023-04-05T08:21:45;95374.97;;;6.02;43.27
30744;BME280;17486;46.738;7.622;2023-04-05T08:24:10;95357.16;;;5.93;42.39
30744;BME280;17486;46.738;7.622;2023-04-05T08:26:36;95380.75;;;6.12;42.69
30744;BME280;17486;46.738;7.622;2023-04-05T08:29:01;95377.13;;;6.18;43.26
30744;BME280;17486;46.738;7.622;2023-04-05T08:31:27;95376.03;;;6.25;43.36
30744;BME280;17486;46.738;7.622;2023-04-05T08:33:52;95383.34;;;6.39;43.19
30744;BME280;17486;46.738;7.622;2023-04-05T08:36:18;95385.59;;;6.50;43.25
30744;BME280;17486;46.738;7.622;2023-04-05T08:38:43;95357.34;;;6.45;43.13
30744;BME280;17486;46.738;7.622;2023-04-05T08:41:18;95385.72;;;6.73;42.91
30744;BME280;17486;46.738;7.622;2023-04-05T08:44:01;95386.16;;;6.86;43.19
30744;BME280;17486;46.738;7.622;2023-04-05T08:46:33;95378.84;;;6.99;43.04
30744;BME280;17486;46.738;7.622;2023-04-05T08:49:03;95387.78;;;7.16;42.39
30744;BME280;17486;46.738;7.622;2023-04-05T08:51:30;95378.81;;;7.26;42.39
30744;BME280;17486;46.738;7.622;2023-04-05T08:53:55;95382.75;;;7.36;42.35
30744;BME280;17486;46.738;7.622;2023-04-05T08:56:25;95378.88;;;7.50;42.26
30744;BME280;17486;46.738;7.622;2023-04-05T08:59:09;95369.75;;;7.63;41.86
30744;BME280;17486;46.738;7.622;2023-04-05T09:01:37;95377.94;;;7.76;41.42
30744;BME280;17486;46.738;7.622;2023-04-05T09:04:09;95380.00;;;7.90;40.67
30744;BME280;17486;46.738;7.622;2023-04-05T09:06:36;95368.13;;;7.84;41.38
30744;BME280;17486;46.738;7.622;2023-04-05T09:09:05;95378.03;;;7.96;40.81
30744;BME280;17486;46.738;7.622;2023-04-05T09:11:31;95383.72;;;8.06;40.84
30744;BME280;17486;46.738;7.622;2023-04-05T09:13:57;95373.81;;;8.16;40.85
30744;BME280;17486;46.738;7.622;2023-04-05T09:16:23;95377.72;;;8.28;41.04
30744;BME280;17486;46.738;7.622;2023-04-05T09:18:50;95377.31;;;8.39;40.77
30744;BME280;17486;46.738;7.622;2023-04-05T09:21:15;95368.25;;;8.51;40.21
30744;BME280;17486;46.738;7.622;2023-04-05T09:23:51;95373.66;;;8.67;40.00
30744;BME280;17486;46.738;7.622;2023-04-05T09:26:18;95360.81;;;8.63;39.96
30744;BME280;17486;46.738;7.622;2023-04-05T09:28:44;95357.72;;;8.76;39.44
30744;BME280;17486;46.738;7.622;2023-04-05T09:31:28;95354.75;;;8.85;39.36
30744;BME280;17486;46.738;7.622;2023-04-05T09:33:56;95356.53;;;9.05;39.17
30744;BME280;17486;46.738;7.622;2023-04-05T09:36:22;95361.34;;;9.15;38.88
30744;BME280;17486;46.738;7.622;2023-04-05T09:38:47;95353.91;;;9.26;38.37
30744;BME280;17486;46.738;7.622;2023-04-05T09:41:13;95353.41;;;9.38;38.22
30744;BME280;17486;46.738;7.622;2023-04-05T09:43:39;95338.88;;;9.34;37.93
30744;BME280;17486;46.738;7.622;2023-04-05T09:46:05;95348.19;;;9.59;37.68
30744;BME280;17486;46.738;7.622;2023-04-05T09:48:48;95346.81;;;9.71;36.62
30744;BME280;17486;46.738;7.622;2023-04-05T09:51:17;95347.94;;;9.84;36.98
30744;BME280;17486;46.738;7.622;2023-04-05T09:54:08;95348.06;;;10.00;36.69
30744;BME280;17486;46.738;7.622;2023-04-05T09:56:37;95338.09;;;10.10;36.42
30744;BME280;17486;46.738;7.622;2023-04-05T09:59:07;95344.97;;;10.30;35.80
30744;BME280;17486;46.738;7.622;2023-04-05T10:01:35;95331.50;;;10.41;36.68
30744;BME280;17486;46.738;7.622;2023-04-05T10:04:01;95323.47;;;10.45;36.11
30744;BME280;17486;46.738;7.622;2023-04-05T10:09:02;95335.41;;;10.86;35.09
30744;BME280;17486;46.738;7.622;2023-04-05T10:11:29;95290.00;;;10.74;34.83
30744;BME280;17486;46.738;7.622;2023-04-05T10:13:54;95328.56;;;11.01;34.21
30744;BME280;17486;46.738;7.622;2023-04-05T10:16:22;95335.91;;;11.10;34.39
30744;BME280;17486;46.738;7.622;2023-04-05T10:18:51;95332.72;;;11.23;34.16
30744;BME280;17486;46.738;7.622;2023-04-05T10:21:21;95328.47;;;11.38;35.06
30744;BME280;17486;46.738;7.622;2023-04-05T10:23:58;95333.72;;;11.54;33.97
30744;BME280;17486;46.738;7.622;2023-04-05T10:29:24;95329.59;;;11.83;33.69
30744;BME280;17486;46.738;7.622;2023-04-05T10:31:58;95324.59;;;11.96;32.98
30744;BME280;17486;46.738;7.622;2023-04-05T10:34:43;95325.75;;;12.06;33.27
30744;BME280;17486;46.738;7.622;2023-04-05T10:37:21;95327.13;;;12.14;33.13
30744;BME280;17486;46.738;7.622;2023-04-05T10:39:51;95323.09;;;12.24;32.78
30744;BME280;17486;46.738;7.622;2023-04-05T10:42:23;95318.72;;;12.24;32.45
30744;BME280;17486;46.738;7.622;2023-04-05T10:44:51;95320.22;;;12.28;32.96
30744;BME280;17486;46.738;7.622;2023-04-05T10:47:26;95326.13;;;12.32;32.68
30744;BME280;17486;46.738;7.622;2023-04-05T10:49:53;95303.66;;;12.30;32.14
30744;BME280;17486;46.738;7.622;2023-04-05T10:52:21;95323.00;;;12.41;31.86
30744;BME280;17486;46.738;7.622;2023-04-05T10:54:47;95303.22;;;12.37;32.72
30744;BME280;17486;46.738;7.622;2023-04-05T10:57:13;95315.41;;;12.53;31.82
30744;BME280;17486;46.738;7.622;2023-04-05T10:59:42;95307.09;;;12.46;32.22
30744;BME280;17486;46.738;7.622;2023-04-05T11:02:08;95319.34;;;12.60;31.32
30744;BME280;17486;46.738;7.622;2023-04-05T11:04:33;95312.97;;;12.66;31.55
30744;BME280;17486;46.738;7.622;2023-04-05T11:07:15;95312.44;;;12.75;31.13
30744;BME280;17486;46.738;7.622;2023-04-05T11:09:52;95312.56;;;12.88;31.35
30744;BME280;17486;46.738;7.622;2023-04-05T11:12:19;95283.34;;;12.81;30.61
30744;BME280;17486;46.738;7.622;2023-04-05T11:18:11;95308.16;;;13.19;30.37
30744;BME280;17486;46.738;7.622;2023-04-05T11:20:52;95296.69;;;13.21;29.66
30744;BME280;17486;46.738;7.622;2023-04-05T11:23:23;95308.94;;;13.35;29.93
30744;BME280;17486;46.738;7.622;2023-04-05T11:26:02;95299.66;;;13.46;29.81
30744;BME280;17486;46.738;7.622;2023-04-05T11:28:30;95300.78;;;13.56;29.44
30744;BME280;17486;46.738;7.622;2023-04-05T11:30:56;95280.97;;;13.52;29.68
30744;BME280;17486;46.738;7.622;2023-04-05T11:33:52;95286.94;;;13.68;30.00
30744;BME280;17486;46.738;7.622;2023-04-05T11:36:29;95290.69;;;13.79;28.20
30744;BME280;17486;46.738;7.622;2023-04-05T11:41:43;95287.97;;;13.66;28.75
30744;BME280;17486;46.738;7.622;2023-04-05T11:44:13;95284.69;;;13.76;29.20
30744;BME280;17486;46.738;7.622;2023-04-05T11:46:40;95279.56;;;13.89;29.16
30744;BME280;17486;46.738;7.622;2023-04-05T11:49:06;95281.38;;;14.16;28.84
30744;BME280;17486;46.738;7.622;2023-04-05T11:51:32;95285.63;;;14.32;28.24
30744;BME280;17486;46.738;7.622;2023-04-05T11:53:57;95279.91;;;14.39;27.99
30744;BME280;17486;46.738;7.622;2023-04-05T11:56:22;95283.59;;;14.50;28.19
30744;BME280;17486;46.738;7.622;2023-04-05T11:58:48;95281.44;;;14.56;27.80
30744;BME280;17486;46.738;7.622;2023-04-05T12:01:13;95279.63;;;14.71;27.67
30744;BME280;17486;46.738;7.622;2023-04-05T12:03:39;95283.66;;;14.90;27.40
30744;BME280;17486;46.738;7.622;2023-04-05T12:06:05;95280.84;;;15.06;26.43
30744;BME280;17486;46.738;7.622;2023-04-05T12:08:43;95283.09;;;15.25;26.70
30744;BME280;17486;46.738;7.622;2023-04-05T12:11:15;95274.06;;;15.42;26.77
30744;BME280;17486;46.738;7.622;2023-04-05T12:13:41;95246.06;;;15.42;26.15
30744;BME280;17486;46.738;7.622;2023-04-05T12:16:07;95265.88;;;15.59;24.31
30744;BME280;17486;46.738;7.622;2023-04-05T12:18:36;95272.56;;;15.64;25.40
30744;BME280;17486;46.738;7.622;2023-04-05T12:21:04;95265.75;;;15.74;24.78
30744;BME280;17486;46.738;7.622;2023-04-05T12:23:30;95274.97;;;15.80;24.33
30744;BME280;17486;46.738;7.622;2023-04-05T12:25:56;95271.94;;;15.86;23.31
30744;BME280;17486;46.738;7.622;2023-04-05T12:28:22;95258.00;;;15.85;23.00
30744;BME280;17486;46.738;7.622;2023-04-05T12:30:56;95249.38;;;15.96;23.35
30744;BME280;17486;46.738;7.622;2023-04-05T12:33:26;95255.25;;;16.00;23.00
30744;BME280;17486;46.738;7.622;2023-04-05T12:35:52;95248.94;;;16.02;22.58
30744;BME280;17486;46.738;7.622;2023-04-05T12:38:18;95259.22;;;16.05;23.00
30744;BME280;17486;46.738;7.622;2023-04-05T12:40:43;95262.56;;;16.07;23.09
30744;BME280;17486;46.738;7.622;2023-04-05T12:43:10;95251.63;;;16.14;22.96
30744;BME280;17486;46.738;7.622;2023-04-05T12:45:36;95252.75;;;16.22;23.53
30744;BME280;17486;46.738;7.622;2023-04-05T12:48:12;95257.25;;;16.20;23.11
30744;BME280;17486;46.738;7.622;2023-04-05T12:50:46;95250.69;;;16.15;23.33
30744;BME280;17486;46.738;7.622;2023-04-05T12:53:16;95257.09;;;16.11;23.42
30744;BME280;17486;46.738;7.622;2023-04-05T12:55:48;95249.75;;;16.16;23.24
30744;BME280;17486;46.738;7.622;2023-04-05T12:58:13;95247.81;;;16.18;23.25
30744;BME280;17486;46.738;7.622;2023-04-05T13:00:39;95250.13;;;16.22;22.99
30744;BME280;17486;46.738;7.622;2023-04-05T13:03:05;95246.44;;;16.25;23.16
30744;BME280;17486;46.738;7.622;2023-04-05T13:05:30;95245.72;;;16.23;22.67
30744;BME280;17486;46.738;7.622;2023-04-05T13:07:56;95240.25;;;16.26;22.93
30744;BME280;17486;46.738;7.622;2023-04-05T13:10:23;95236.88;;;16.24;21.72
30744;BME280;17486;46.738;7.622;2023-04-05T13:12:49;95233.56;;;16.22;22.50
30744;BME280;17486;46.738;7.622;2023-04-05T13:15:16;95233.56;;;16.22;22.23
30744;BME280;17486;46.738;7.622;2023-04-05T13:17:42;95239.31;;;16.27;22.40
30744;BME280;17486;46.738;7.622;2023-04-05T13:20:09;95236.88;;;16.24;22.13
30744;BME280;17486;46.738;7.622;2023-04-05T13:22:35;95241.16;;;16.38;21.82
30744;BME280;17486;46.738;7.622;2023-04-05T13:25:01;95235.84;;;16.51;21.69
30744;BME280;17486;46.738;7.622;2023-04-05T13:27:26;95226.34;;;16.61;21.99
30744;BME280;17486;46.738;7.622;2023-04-05T13:29:52;95226.91;;;16.89;22.46
30744;BME280;17486;46.738;7.622;2023-04-05T13:32:17;95226.16;;;17.11;21.89